createdAt,value
2018-07-15T00:01:08.257Z,0
2018-07-15T00:02:18.390Z,0
2018-07-15T00:03:28.460Z,0
2018-07-15T00:04:38.538Z,0
2018-07-15T00:05:48.334Z,0
2018-07-15T00:06:58.117Z,0
2018-07-15T00:08:08.242Z,0
2018-07-15T00:09:18.327Z,0
2018-07-15T00:10:27.855Z,0
2018-07-15T00:11:37.937Z,0
2018-07-15T00:12:47.727Z,0
2018-07-15T00:13:57.854Z,0
2018-07-15T00:15:07.651Z,0
2018-07-15T00:16:17.716Z,0
2018-07-15T00:17:27.508Z,0
2018-07-15T00:18:37.322Z,0
2018-07-15T00:19:47.169Z,0
2018-07-15T00:20:56.953Z,0
2018-07-15T00:22:06.743Z,0
2018-07-15T00:23:16.810Z,0
2018-07-15T00:24:26.882Z,0
2018-07-15T00:25:36.718Z,0
2018-07-15T00:26:46.778Z,0
2018-07-15T00:27:56.856Z,0
2018-07-15T00:29:06.941Z,0
2018-07-15T00:30:17.007Z,0
2018-07-15T00:31:26.583Z,0
2018-07-15T00:32:36.371Z,0
2018-07-15T00:33:45.912Z,0
2018-07-15T00:34:55.723Z,0
2018-07-15T00:36:05.510Z,0
2018-07-15T00:37:15.352Z,0
2018-07-15T00:38:25.435Z,0
2018-07-15T00:39:35.528Z,0
2018-07-15T00:40:45.606Z,0
2018-07-15T00:41:55.687Z,0
2018-07-15T00:43:05.804Z,0
2018-07-15T00:44:15.332Z,0
2018-07-15T00:45:25.122Z,0
2018-07-15T00:46:34.655Z,0
2018-07-15T00:47:44.719Z,0
2018-07-15T00:48:54.868Z,0
2018-07-15T00:50:04.123Z,0
2018-07-15T00:51:13.657Z,0
2018-07-15T00:52:23.739Z,0
2018-07-15T00:53:33.807Z,0
2018-07-15T00:54:43.646Z,0
2018-07-15T00:55:53.735Z,0
2018-07-15T00:57:03.812Z,0
2018-07-15T00:58:13.884Z,0
2018-07-15T00:59:23.953Z,0
2018-07-15T01:00:33.535Z,4
2018-07-15T01:01:43.632Z,4
2018-07-15T01:02:53.415Z,4
2018-07-15T01:04:03.482Z,4
2018-07-15T01:05:13.291Z,4
2018-07-15T01:06:23.416Z,4
2018-07-15T01:07:33.489Z,4
2018-07-15T01:08:43.558Z,0
2018-07-15T01:09:53.647Z,0
2018-07-15T01:11:03.724Z,4
2018-07-15T01:12:13.585Z,4
2018-07-15T01:13:23.374Z,4
2018-07-15T01:14:33.441Z,4
2018-07-15T01:15:43.492Z,4
2018-07-15T01:16:53.550Z,8
2018-07-15T01:18:03.671Z,4
2018-07-15T01:19:13.755Z,4
2018-07-15T01:20:23.547Z,4
2018-07-15T01:21:32.797Z,8
2018-07-15T01:22:42.593Z,8
2018-07-15T01:23:52.424Z,8
2018-07-15T01:25:02.211Z,8
2018-07-15T01:26:12.017Z,8
2018-07-15T01:27:21.823Z,8
2018-07-15T01:28:31.908Z,8
2018-07-15T01:29:41.496Z,12
2018-07-15T01:30:51.289Z,12
2018-07-15T01:32:01.100Z,12
2018-07-15T01:33:10.900Z,12
2018-07-15T01:34:20.696Z,16
2018-07-15T01:35:30.806Z,16
2018-07-15T01:36:40.884Z,20
2018-07-15T01:37:50.689Z,20
2018-07-15T01:39:00.230Z,20
2018-07-15T01:40:10.020Z,24
2018-07-15T01:41:19.939Z,24
2018-07-15T01:42:30.022Z,24
2018-07-15T01:43:40.089Z,24
2018-07-15T01:44:49.630Z,28
2018-07-15T01:45:59.720Z,28
2018-07-15T01:47:09.851Z,32
2018-07-15T01:48:19.661Z,32
2018-07-15T01:49:29.471Z,36
2018-07-15T01:50:39.561Z,40
2018-07-15T01:51:49.639Z,44
2018-07-15T01:52:59.742Z,44
2018-07-15T01:54:09.537Z,52
2018-07-15T01:55:19.663Z,52
2018-07-15T01:56:29.205Z,56
2018-07-15T01:57:39.077Z,60
2018-07-15T01:58:48.930Z,64
2018-07-15T01:59:58.990Z,68
2018-07-15T02:01:08.778Z,76
2018-07-15T02:02:18.571Z,80
2018-07-15T02:03:27.835Z,88
2018-07-15T02:04:37.981Z,96
2018-07-15T02:05:48.045Z,104
2018-07-15T02:06:58.112Z,112
2018-07-15T02:08:07.646Z,120
2018-07-15T02:09:17.458Z,132
2018-07-15T02:10:27.565Z,144
2018-07-15T02:11:37.621Z,152
2018-07-15T02:12:47.674Z,164
2018-07-15T02:13:57.762Z,176
2018-07-15T02:15:07.543Z,188
2018-07-15T02:16:17.656Z,200
2018-07-15T02:17:27.744Z,216
2018-07-15T02:18:37.824Z,232
2018-07-15T02:19:47.900Z,244
2018-07-15T02:20:57.444Z,260
2018-07-15T02:22:07.002Z,280
2018-07-15T02:23:16.818Z,296
2018-07-15T02:24:26.632Z,316
2018-07-15T02:25:36.711Z,336
2018-07-15T02:26:46.510Z,352
2018-07-15T02:27:56.631Z,376
2018-07-15T02:29:06.710Z,392
2018-07-15T02:30:16.245Z,412
2018-07-15T02:31:25.790Z,432
2018-07-15T02:32:35.883Z,452
2018-07-15T02:33:45.991Z,476
2018-07-15T02:34:56.059Z,496
2018-07-15T02:36:05.892Z,512
2018-07-15T02:37:15.428Z,536
2018-07-15T02:38:24.980Z,560
2018-07-15T02:39:34.835Z,584
2018-07-15T02:40:44.661Z,604
2018-07-15T02:41:54.732Z,624
2018-07-15T02:43:04.823Z,648
2018-07-15T02:44:14.375Z,672
2018-07-15T02:45:24.221Z,700
2018-07-15T02:46:34.022Z,720
2018-07-15T02:47:43.821Z,744
2018-07-15T02:48:53.627Z,768
2018-07-15T02:50:03.721Z,796
2018-07-15T02:51:13.637Z,816
2018-07-15T02:52:23.457Z,836
2018-07-15T02:53:32.719Z,860
2018-07-15T02:54:42.801Z,876
2018-07-15T02:55:52.873Z,900
2018-07-15T02:57:02.997Z,920
2018-07-15T02:58:12.513Z,944
2018-07-15T02:59:22.309Z,968
2018-07-15T03:03:47.027Z,1044
2018-07-15T03:04:56.861Z,1064
2018-07-15T03:06:06.945Z,1084
2018-07-15T03:07:16.752Z,1100
2018-07-15T03:08:26.822Z,1116
2018-07-15T03:09:36.705Z,1136
2018-07-15T03:10:46.785Z,1156
2018-07-15T03:11:56.313Z,1176
2018-07-15T03:13:06.391Z,1200
2018-07-15T03:14:16.467Z,1228
2018-07-15T03:15:26.333Z,1248
2018-07-15T03:16:36.422Z,1280
2018-07-15T03:17:46.201Z,1308
2018-07-15T03:18:56.013Z,1340
2018-07-15T03:20:05.831Z,1376
2018-07-15T03:21:15.688Z,1408
2018-07-15T03:22:25.744Z,1444
2018-07-15T03:23:35.548Z,1480
2018-07-15T03:24:45.097Z,1520
2018-07-15T03:25:54.885Z,1560
2018-07-15T03:27:05.015Z,1604
2018-07-15T03:28:14.835Z,1648
2018-07-15T03:29:24.916Z,1688
2018-07-15T03:30:35.009Z,1724
2018-07-15T03:31:45.105Z,1756
2018-07-15T03:32:54.971Z,1792
2018-07-15T03:34:05.247Z,1816
2018-07-15T03:35:15.035Z,1836
2018-07-15T03:36:24.845Z,1844
2018-07-15T03:37:34.650Z,1868
2018-07-15T03:38:44.774Z,1888
2018-07-15T03:39:54.342Z,1920
2018-07-15T03:41:04.644Z,1960
2018-07-15T03:42:14.720Z,2008
2018-07-15T03:43:24.819Z,2060
2018-07-15T03:44:34.947Z,2112
2018-07-15T03:45:44.990Z,2164
2018-07-15T03:46:54.825Z,2216
2018-07-15T03:48:04.928Z,2256
2018-07-15T03:49:15.002Z,2296
2018-07-15T03:50:24.869Z,2328
2018-07-15T03:51:34.656Z,2352
2018-07-15T03:52:44.734Z,2372
2018-07-15T03:53:54.795Z,2392
2018-07-15T03:55:04.325Z,2412
2018-07-15T03:56:14.449Z,2432
2018-07-15T03:57:24.521Z,2444
2018-07-15T03:58:34.326Z,2460
2018-07-15T03:59:44.138Z,2468
2018-07-15T04:00:54.580Z,2468
2018-07-15T04:02:04.190Z,2472
2018-07-15T04:03:14.255Z,2476
2018-07-15T04:04:24.043Z,2484
2018-07-15T04:05:33.590Z,2504
2018-07-15T04:06:43.104Z,2508
2018-07-15T04:07:52.966Z,2508
2018-07-15T04:09:03.563Z,2508
2018-07-15T04:10:13.632Z,2508
2018-07-15T04:11:23.697Z,2496
2018-07-15T04:12:33.780Z,2480
2018-07-15T04:13:43.893Z,2468
2018-07-15T04:14:53.955Z,2444
2018-07-15T04:16:03.760Z,2416
2018-07-15T04:17:13.298Z,2408
2018-07-15T04:18:23.363Z,2396
2018-07-15T04:19:32.941Z,2396
2018-07-15T04:20:43.047Z,2400
2018-07-15T04:21:52.843Z,2404
2018-07-15T04:23:02.924Z,2408
2018-07-15T04:24:12.450Z,2416
2018-07-15T04:25:22.010Z,2428
2018-07-15T04:26:32.091Z,2436
2018-07-15T04:27:41.881Z,2452
2018-07-15T04:28:51.947Z,2464
2018-07-15T04:30:01.820Z,2476
2018-07-15T04:31:11.123Z,2492
2018-07-15T04:32:21.195Z,2500
2018-07-15T04:33:31.267Z,2516
2018-07-15T04:34:41.329Z,2524
2018-07-15T04:35:51.402Z,2540
2018-07-15T04:37:01.534Z,2556
2018-07-15T04:38:11.610Z,2564
2018-07-15T04:39:21.690Z,2572
2018-07-15T04:40:31.770Z,2584
2018-07-15T04:41:41.303Z,2596
2018-07-15T04:42:51.167Z,2608
2018-07-15T04:44:01.605Z,2632
2018-07-15T04:45:11.398Z,2640
2018-07-15T04:46:21.475Z,2648
2018-07-15T04:47:31.008Z,2652
2018-07-15T04:48:40.872Z,2664
2018-07-15T04:49:50.676Z,2676
2018-07-15T04:51:00.765Z,2688
2018-07-15T04:52:10.019Z,2696
2018-07-15T04:53:19.275Z,2708
2018-07-15T04:54:29.396Z,2720
2018-07-15T04:55:38.936Z,2728
2018-07-15T04:56:49.007Z,2736
2018-07-15T04:57:58.801Z,2736
2018-07-15T04:59:08.871Z,2744
2018-07-15T05:00:18.732Z,2756
2018-07-15T05:01:28.805Z,2760
2018-07-15T05:02:38.878Z,2768
2018-07-15T05:03:48.950Z,2784
2018-07-15T05:04:59.006Z,2788
2018-07-15T05:06:09.142Z,2796
2018-07-15T05:07:19.212Z,2808
2018-07-15T05:08:29.295Z,2816
2018-07-15T05:09:39.091Z,2820
2018-07-15T05:10:48.907Z,2832
2018-07-15T05:11:58.765Z,2832
2018-07-15T05:13:08.639Z,2836
2018-07-15T05:14:18.179Z,2848
2018-07-15T05:15:27.998Z,2856
2018-07-15T05:16:37.798Z,2864
2018-07-15T05:17:47.924Z,2868
2018-07-15T05:18:58.006Z,2880
2018-07-15T05:20:08.073Z,2884
2018-07-15T05:21:17.865Z,2888
2018-07-15T05:22:27.929Z,2892
2018-07-15T05:23:37.496Z,2900
2018-07-15T05:24:47.306Z,2908
2018-07-15T05:25:57.447Z,2920
2018-07-15T05:27:06.980Z,2920
2018-07-15T05:28:16.772Z,2928
2018-07-15T05:29:26.905Z,2932
2018-07-15T05:30:36.706Z,2940
2018-07-15T05:31:46.764Z,2952
2018-07-15T05:32:56.833Z,2960
2018-07-15T05:34:06.100Z,2964
2018-07-15T05:35:16.229Z,2972
2018-07-15T05:36:26.032Z,2980
2018-07-15T05:37:35.854Z,2988
2018-07-15T05:38:45.919Z,2992
2018-07-15T05:39:55.727Z,3000
2018-07-15T05:41:05.854Z,3008
2018-07-15T05:42:15.933Z,3012
2018-07-15T05:43:26.004Z,3020
2018-07-15T05:44:35.821Z,3024
2018-07-15T05:45:45.895Z,3032
2018-07-15T05:46:56.033Z,3036
2018-07-15T05:48:05.861Z,3048
2018-07-15T05:49:15.668Z,3048
2018-07-15T05:50:25.466Z,3056
2018-07-15T05:51:35.537Z,3060
2018-07-15T05:52:45.391Z,3064
2018-07-15T05:53:55.207Z,3072
2018-07-15T05:55:04.735Z,3084
2018-07-15T05:56:14.805Z,3088
2018-07-15T05:57:24.613Z,3096
2018-07-15T05:58:34.752Z,3104
2018-07-15T05:59:44.819Z,3044
2018-07-15T06:00:54.911Z,3112
2018-07-15T06:02:04.424Z,3116
2018-07-15T06:03:13.696Z,3116
2018-07-15T06:04:23.548Z,3124
2018-07-15T06:05:33.349Z,3112
2018-07-15T06:06:43.430Z,3132
2018-07-15T06:07:53.505Z,3132
2018-07-15T06:09:03.586Z,3144
2018-07-15T06:10:13.456Z,3148
2018-07-15T06:11:23.526Z,3156
2018-07-15T06:12:33.596Z,3156
2018-07-15T06:13:43.678Z,3160
2018-07-15T06:14:53.745Z,3160
2018-07-15T06:16:03.882Z,3160
2018-07-15T06:17:14.418Z,3164
2018-07-15T06:18:24.600Z,3168
2018-07-15T06:19:34.124Z,3168
2018-07-15T06:20:43.929Z,3176
2018-07-15T06:21:54.039Z,3176
2018-07-15T06:23:03.851Z,3180
2018-07-15T06:24:13.652Z,3184
2018-07-15T06:25:23.187Z,3192
2018-07-15T06:26:33.254Z,3196
2018-07-15T06:27:42.565Z,3200
2018-07-15T06:28:52.365Z,3200
2018-07-15T06:30:02.173Z,3208
2018-07-15T06:31:12.229Z,3216
2018-07-15T06:32:22.029Z,3220
2018-07-15T06:33:31.890Z,3224
2018-07-15T06:34:41.981Z,3228
2018-07-15T06:35:52.075Z,3236
2018-07-15T06:37:01.867Z,3240
2018-07-15T06:38:11.852Z,3248
2018-07-15T06:39:22.245Z,3256
2018-07-15T06:40:32.402Z,3264
2018-07-15T06:41:42.489Z,3272
2018-07-15T06:42:52.553Z,3280
2018-07-15T06:44:02.361Z,3288
2018-07-15T06:45:12.222Z,3296
2018-07-15T06:46:22.277Z,3304
2018-07-15T06:47:32.333Z,3316
2018-07-15T06:48:42.145Z,3324
2018-07-15T06:49:52.223Z,3336
2018-07-15T06:51:02.358Z,3340
2018-07-15T06:52:12.151Z,3352
2018-07-15T06:53:22.240Z,3368
2018-07-15T06:54:32.057Z,3380
2018-07-15T06:55:41.864Z,3384
2018-07-15T06:56:51.713Z,3396
2018-07-15T06:58:01.768Z,3404
2018-07-15T06:59:11.578Z,3416
2018-07-15T07:00:21.378Z,3424
2018-07-15T07:01:31.287Z,3432
2018-07-15T07:02:41.559Z,3440
2018-07-15T07:03:51.100Z,3440
2018-07-15T07:05:00.897Z,3452
2018-07-15T07:06:10.765Z,3452
2018-07-15T07:07:20.979Z,3448
2018-07-15T07:08:31.448Z,3452
2018-07-15T07:09:41.260Z,3456
2018-07-15T07:10:51.061Z,3460
2018-07-15T07:12:01.124Z,3464
2018-07-15T07:13:10.939Z,3472
2018-07-15T07:14:20.546Z,3484
2018-07-15T07:15:30.533Z,3492
2018-07-15T07:16:40.602Z,3492
2018-07-15T07:17:50.648Z,3500
2018-07-15T07:19:00.724Z,3504
2018-07-15T07:20:10.577Z,3508
2018-07-15T07:21:20.653Z,3512
2018-07-15T07:22:30.447Z,3520
2018-07-15T07:23:40.506Z,3528
2018-07-15T07:24:50.584Z,3536
2018-07-15T07:26:00.718Z,3544
2018-07-15T07:27:10.803Z,3548
2018-07-15T07:28:20.614Z,3556
2018-07-15T07:29:30.435Z,3568
2018-07-15T07:30:39.969Z,3576
2018-07-15T07:31:49.544Z,3592
2018-07-15T07:32:59.073Z,3608
2018-07-15T07:34:08.902Z,3616
2018-07-15T07:35:19.177Z,3636
2018-07-15T07:36:29.064Z,3652
2018-07-15T07:37:39.186Z,3668
2018-07-15T07:38:49.541Z,3680
2018-07-15T07:39:59.859Z,3696
2018-07-15T07:41:09.808Z,3712
2018-07-15T07:42:19.987Z,3728
2018-07-15T07:43:30.115Z,3736
2018-07-15T07:44:39.928Z,3740
2018-07-15T07:45:49.722Z,3756
2018-07-15T07:46:59.349Z,3764
2018-07-15T07:48:09.695Z,3776
2018-07-15T07:49:19.281Z,3788
2018-07-15T07:50:29.081Z,3796
2018-07-15T07:51:39.158Z,3804
2018-07-15T07:52:49.232Z,3808
2018-07-15T07:53:59.303Z,3808
2018-07-15T07:55:08.892Z,3804
2018-07-15T07:56:18.963Z,3796
2018-07-15T07:57:29.058Z,3788
2018-07-15T07:58:38.855Z,3732
2018-07-15T07:59:48.925Z,3688
2018-07-15T08:00:59.044Z,3696
2018-07-15T08:02:08.981Z,3704
2018-07-15T08:03:18.780Z,3708
2018-07-15T08:04:28.850Z,3764
2018-07-15T08:05:38.656Z,3760
2018-07-15T08:06:48.823Z,3740
2018-07-15T08:07:58.918Z,3760
2018-07-15T08:09:08.736Z,3816
2018-07-15T08:10:18.300Z,3840
2018-07-15T08:11:28.389Z,3840
2018-07-15T08:12:37.968Z,3824
2018-07-15T08:13:47.770Z,3860
2018-07-15T08:14:57.570Z,3908
2018-07-15T08:16:07.387Z,3936
2018-07-15T08:17:17.489Z,3936
2018-07-15T08:18:27.604Z,3928
2018-07-15T08:19:37.685Z,3900
2018-07-15T08:20:47.759Z,3872
2018-07-15T08:21:57.827Z,3772
2018-07-15T08:23:07.915Z,3760
2018-07-15T08:24:18.045Z,3760
2018-07-15T08:25:27.577Z,3848
2018-07-15T08:26:37.661Z,3936
2018-07-15T08:27:47.464Z,3972
2018-07-15T08:28:57.276Z,3924
2018-07-15T08:30:06.882Z,3892
2018-07-15T08:31:16.697Z,4084
2018-07-15T08:32:26.511Z,4080
2018-07-15T08:33:36.581Z,4164
2018-07-15T08:34:46.447Z,4128
2018-07-15T08:35:56.653Z,4168
2018-07-15T08:37:06.469Z,4216
2018-07-15T08:38:16.269Z,4244
2018-07-15T08:39:25.851Z,4272
2018-07-15T08:40:35.412Z,4276
2018-07-15T08:41:45.286Z,4280
2018-07-15T08:42:55.379Z,4292
2018-07-15T08:44:05.194Z,4288
2018-07-15T08:45:15.008Z,4300
2018-07-15T08:46:25.079Z,4296
2018-07-15T08:47:34.942Z,4308
2018-07-15T08:48:45.026Z,4332
2018-07-15T08:49:54.826Z,4348
2018-07-15T08:51:04.904Z,4356
2018-07-15T08:52:14.831Z,4308
2018-07-15T08:53:24.426Z,4372
2018-07-15T08:54:34.361Z,4392
2018-07-15T08:55:44.491Z,4424
2018-07-15T08:56:54.591Z,4440
2018-07-15T08:58:04.657Z,4428
2018-07-15T08:59:14.562Z,4440
2018-07-15T09:00:24.659Z,4444
2018-07-15T09:01:34.745Z,4456
2018-07-15T09:02:44.818Z,4484
2018-07-15T09:03:54.893Z,4496
2018-07-15T09:05:04.751Z,4544
2018-07-15T09:06:14.581Z,4600
2018-07-15T09:07:24.118Z,4624
2018-07-15T09:08:34.214Z,4632
2018-07-15T09:09:44.309Z,4660
2018-07-15T09:10:54.453Z,4708
2018-07-15T09:12:04.273Z,4736
2018-07-15T09:13:14.350Z,4788
2018-07-15T09:14:24.421Z,4820
2018-07-15T09:15:34.294Z,4836
2018-07-15T09:16:44.426Z,4860
2018-07-15T09:17:53.960Z,4880
2018-07-15T09:19:03.500Z,4900
2018-07-15T09:20:13.282Z,4912
2018-07-15T09:21:23.098Z,4920
2018-07-15T09:22:33.247Z,4952
2018-07-15T09:23:43.365Z,4952
2018-07-15T09:24:53.181Z,4948
2018-07-15T09:26:02.705Z,4912
2018-07-15T09:27:12.240Z,4832
2018-07-15T09:28:21.551Z,4904
2018-07-15T09:29:31.635Z,4892
2018-07-15T09:30:41.728Z,4940
2018-07-15T09:31:51.264Z,4992
2018-07-15T09:33:01.073Z,5016
2018-07-15T09:34:11.186Z,5040
2018-07-15T09:35:21.458Z,5032
2018-07-15T09:36:31.001Z,5128
2018-07-15T09:37:41.061Z,5148
2018-07-15T09:38:51.127Z,5180
2018-07-15T09:40:00.994Z,5192
2018-07-15T09:41:11.100Z,5248
2018-07-15T09:42:20.911Z,5136
2018-07-15T09:43:30.181Z,5060
2018-07-15T09:44:39.984Z,5356
2018-07-15T09:45:49.565Z,5032
2018-07-15T09:46:59.354Z,5344
2018-07-15T09:48:08.967Z,5480
2018-07-15T09:49:18.488Z,5476
2018-07-15T09:50:28.293Z,5520
2018-07-15T09:51:37.869Z,5476
2018-07-15T09:52:47.667Z,5460
2018-07-15T09:53:57.754Z,5540
2018-07-15T09:55:07.572Z,5492
2018-07-15T09:56:17.645Z,5548
2018-07-15T09:57:27.762Z,5556
2018-07-15T09:58:37.836Z,5552
2018-07-15T09:59:47.937Z,5576
2018-07-15T10:00:57.746Z,5572
2018-07-15T10:02:07.591Z,5600
2018-07-15T10:03:17.158Z,5596
2018-07-15T10:04:27.248Z,5572
2018-07-15T10:05:37.346Z,5556
2018-07-15T10:06:47.425Z,5620
2018-07-15T10:07:56.955Z,5612
2018-07-15T10:09:06.540Z,5676
2018-07-15T10:10:16.349Z,5704
2018-07-15T10:11:26.464Z,5736
2018-07-15T10:12:36.281Z,5764
2018-07-15T10:13:46.363Z,5780
2018-07-15T10:14:56.500Z,5720
2018-07-15T10:16:06.048Z,5668
2018-07-15T10:17:16.123Z,5612
2018-07-15T10:18:25.934Z,5680
2018-07-15T10:19:35.750Z,5692
2018-07-15T10:20:45.615Z,5704
2018-07-15T10:21:55.708Z,5712
2018-07-15T10:23:05.775Z,5740
2018-07-15T10:24:15.869Z,5748
2018-07-15T10:25:25.947Z,5708
2018-07-15T10:26:35.772Z,5652
2018-07-15T10:27:45.932Z,5696
2018-07-15T10:28:55.742Z,5724
2018-07-15T10:30:05.551Z,5732
2018-07-15T10:31:15.369Z,5692
2018-07-15T10:32:25.507Z,5760
2018-07-15T10:33:35.620Z,5780
2018-07-15T10:34:45.691Z,5800
2018-07-15T10:35:55.228Z,5792
2018-07-15T10:37:05.060Z,5656
2018-07-15T10:38:14.650Z,5760
2018-07-15T10:39:24.461Z,5748
2018-07-15T10:40:34.548Z,5740
2018-07-15T10:41:44.093Z,5724
2018-07-15T10:42:53.906Z,5740
2018-07-15T10:44:04.053Z,5696
2018-07-15T10:45:13.874Z,5776
2018-07-15T10:46:23.694Z,5736
2018-07-15T10:47:33.775Z,5828
2018-07-15T10:48:43.585Z,5888
2018-07-15T10:49:53.433Z,6024
2018-07-15T10:51:02.954Z,6128
2018-07-15T10:52:12.495Z,6228
2018-07-15T10:53:22.309Z,6364
2018-07-15T10:54:32.116Z,6476
2018-07-15T10:55:41.979Z,6600
2018-07-15T10:56:52.052Z,6684
2018-07-15T10:58:01.870Z,6700
2018-07-15T10:59:11.397Z,6768
2018-07-15T11:00:20.951Z,6828
2018-07-15T11:01:31.075Z,6900
2018-07-15T11:02:40.875Z,6952
2018-07-15T11:03:50.958Z,6852
2018-07-15T11:05:01.043Z,7112
2018-07-15T11:06:10.324Z,7168
2018-07-15T11:07:20.473Z,7160
2018-07-15T11:08:30.562Z,7180
2018-07-15T11:09:40.648Z,7228
2018-07-15T11:10:50.189Z,7268
2018-07-15T11:12:00.256Z,7308
2018-07-15T11:13:10.378Z,7364
2018-07-15T11:14:20.579Z,7468
2018-07-15T11:15:30.666Z,7556
2018-07-15T11:16:41.190Z,7628
2018-07-15T11:17:51.318Z,7688
2018-07-15T11:19:01.436Z,7836
2018-07-15T11:20:10.971Z,8052
2018-07-15T11:21:20.788Z,8352
2018-07-15T11:22:31.126Z,8652
2018-07-15T11:23:40.916Z,8888
2018-07-15T11:24:50.226Z,9160
2018-07-15T11:26:00.394Z,9460
2018-07-15T11:27:09.995Z,9676
2018-07-15T11:28:19.828Z,9884
2018-07-15T11:29:29.358Z,10164
2018-07-15T11:30:39.482Z,10332
2018-07-15T11:31:49.318Z,10412
2018-07-15T11:32:59.127Z,10456
2018-07-15T11:34:08.931Z,10408
2018-07-15T11:35:18.468Z,10584
2018-07-15T11:36:28.604Z,10812
2018-07-15T11:37:38.741Z,11180
2018-07-15T11:38:48.833Z,11780
2018-07-15T11:39:58.908Z,13260
2018-07-15T11:41:08.452Z,27680
2018-07-15T11:42:18.312Z,72320
2018-07-15T11:43:28.408Z,86592
2018-07-15T11:44:37.949Z,91488
2018-07-15T11:45:48.042Z,96000
2018-07-15T11:46:58.121Z,92928
2018-07-15T11:48:08.042Z,93632
2018-07-15T11:49:17.666Z,93568
2018-07-15T11:50:27.776Z,92288
2018-07-15T11:51:37.877Z,90656
2018-07-15T11:52:47.691Z,90816
2018-07-15T11:53:57.328Z,93184
2018-07-15T11:55:07.143Z,92640
2018-07-15T11:56:16.959Z,89568
2018-07-15T11:57:26.774Z,86720
2018-07-15T11:58:36.571Z,87456
2018-07-15T11:59:46.447Z,89696
2018-07-15T12:00:56.261Z,86976
2018-07-15T12:02:06.381Z,77056
2018-07-15T12:03:16.196Z,69696
2018-07-15T12:04:26.022Z,67200
2018-07-15T12:05:36.185Z,66624
2018-07-15T12:06:46.280Z,74272
2018-07-15T12:07:56.361Z,74976
2018-07-15T12:09:06.181Z,74944
2018-07-15T12:10:16.263Z,77600
2018-07-15T12:11:26.123Z,79744
2018-07-15T12:12:35.411Z,80992
2018-07-15T12:13:44.951Z,77792
2018-07-15T12:14:55.053Z,74816
2018-07-15T12:16:04.864Z,72096
2018-07-15T12:17:15.015Z,70112
2018-07-15T12:18:25.105Z,66752
2018-07-15T12:19:35.215Z,67712
2018-07-15T12:20:45.486Z,69888
2018-07-15T12:21:55.599Z,77600
2018-07-15T12:23:05.190Z,76064
2018-07-15T12:24:15.011Z,71072
2018-07-15T12:25:24.553Z,73056
2018-07-15T12:26:34.635Z,74304
2018-07-15T12:27:44.724Z,71776
2018-07-15T12:28:54.870Z,71232
2018-07-15T12:30:04.701Z,69120
2018-07-15T12:31:14.253Z,71168
2018-07-15T12:32:24.097Z,69152
2018-07-15T12:33:33.908Z,74400
2018-07-15T12:34:44.039Z,79648
2018-07-15T12:35:53.585Z,79232
2018-07-15T12:37:03.689Z,79552
2018-07-15T12:38:13.502Z,78656
2018-07-15T12:39:23.591Z,81344
2018-07-15T12:40:33.728Z,85376
2018-07-15T12:41:43.531Z,82912
2018-07-15T12:42:53.358Z,77664
2018-07-15T12:44:03.448Z,76992
2018-07-15T12:45:13.540Z,75072
2018-07-15T12:46:23.668Z,77984
2018-07-15T12:47:33.752Z,76096
2018-07-15T12:48:43.576Z,72192
2018-07-15T12:49:53.398Z,71200
2018-07-15T12:51:03.485Z,77312
2018-07-15T12:52:14.127Z,79904
2018-07-15T12:53:24.075Z,80544
2018-07-15T12:54:33.627Z,81312
2018-07-15T12:55:43.449Z,82752
2018-07-15T12:56:53.273Z,84416
2018-07-15T12:58:03.441Z,84800
2018-07-15T12:59:13.542Z,82880
2018-07-15T13:00:23.374Z,81952
2018-07-15T13:01:33.206Z,82688
2018-07-15T13:02:43.286Z,83616
2018-07-15T13:03:53.433Z,84864
2018-07-15T13:05:03.248Z,88928
2018-07-15T13:06:12.550Z,89408
2018-07-15T13:07:22.627Z,86784
2018-07-15T13:08:32.744Z,87872
2018-07-15T13:09:42.607Z,87424
2018-07-15T13:10:52.695Z,88064
2018-07-15T13:12:02.795Z,84544
2018-07-15T13:13:12.622Z,88064
2018-07-15T13:14:22.248Z,90720
2018-07-15T13:15:32.128Z,90816
2018-07-15T13:16:42.216Z,91328
2018-07-15T13:17:52.033Z,85536
2018-07-15T13:19:01.861Z,81376
2018-07-15T13:20:11.964Z,85760
2018-07-15T13:21:22.115Z,84352
2018-07-15T13:22:32.204Z,82400
2018-07-15T13:23:42.282Z,76544
2018-07-15T13:24:51.875Z,87488
2018-07-15T13:26:01.977Z,92320
2018-07-15T13:27:12.116Z,92320
2018-07-15T13:28:22.007Z,89120
2018-07-15T13:29:32.209Z,87936
2018-07-15T13:30:42.338Z,84032
2018-07-15T13:31:51.893Z,81792
2018-07-15T13:33:01.790Z,78912
2018-07-15T13:34:11.337Z,83936
2018-07-15T13:35:21.421Z,83072
2018-07-15T13:36:31.539Z,82112
2018-07-15T13:37:41.630Z,81696
2018-07-15T13:38:51.499Z,83200
2018-07-15T13:40:01.587Z,82080
2018-07-15T13:41:11.134Z,81856
2018-07-15T13:42:20.952Z,82784
2018-07-15T13:43:30.508Z,78976
2018-07-15T13:44:40.377Z,81696
2018-07-15T13:45:50.207Z,84224
2018-07-15T13:47:00.308Z,88256
2018-07-15T13:48:10.409Z,77952
2018-07-15T13:49:20.496Z,83232
2018-07-15T13:50:30.624Z,83104
2018-07-15T13:51:40.435Z,82304
2018-07-15T13:52:50.270Z,76032
2018-07-15T13:54:00.353Z,76992
2018-07-15T13:55:09.919Z,73696
2018-07-15T13:56:20.091Z,63936
2018-07-15T13:57:30.178Z,53824
2018-07-15T13:58:39.990Z,59296
2018-07-15T13:59:50.074Z,59456
2018-07-15T14:01:00.172Z,58400
2018-07-15T14:02:10.038Z,63936
2018-07-15T14:03:19.853Z,65408
2018-07-15T14:04:29.690Z,69952
2018-07-15T14:05:39.767Z,71072
2018-07-15T14:06:49.865Z,72672
2018-07-15T14:07:59.997Z,67712
2018-07-15T14:09:09.279Z,69344
2018-07-15T14:10:19.355Z,69408
2018-07-15T14:11:29.183Z,69760
2018-07-15T14:12:38.746Z,70336
2018-07-15T14:13:48.354Z,73216
2018-07-15T14:14:57.916Z,77632
2018-07-15T14:16:07.736Z,78016
2018-07-15T14:17:17.840Z,73248
2018-07-15T14:18:27.929Z,71072
2018-07-15T14:19:37.805Z,70368
2018-07-15T14:20:47.643Z,67072
2018-07-15T14:21:57.731Z,67712
2018-07-15T14:23:07.820Z,73248
2018-07-15T14:24:17.625Z,68736
2018-07-15T14:25:27.500Z,66944
2018-07-15T14:26:37.330Z,76800
2018-07-15T14:27:47.455Z,77184
2018-07-15T14:28:57.631Z,77120
2018-07-15T14:30:07.744Z,75680
2018-07-15T14:31:17.868Z,72608
2018-07-15T14:32:27.690Z,73824
2018-07-15T14:33:37.250Z,74368
2018-07-15T14:34:47.072Z,71200
2018-07-15T14:35:56.894Z,67424
2018-07-15T14:37:07.034Z,69472
2018-07-15T14:38:17.116Z,72608
2018-07-15T14:39:27.215Z,72896
2018-07-15T14:40:37.320Z,73728
2018-07-15T14:41:47.154Z,73024
2018-07-15T14:42:57.295Z,72032
2018-07-15T14:44:06.838Z,71648
2018-07-15T14:45:16.931Z,67616
2018-07-15T14:46:27.012Z,67552
2018-07-15T14:47:37.096Z,69024
2018-07-15T14:48:47.243Z,66592
2018-07-15T14:49:57.065Z,67264
2018-07-15T14:51:06.900Z,72096
2018-07-15T14:52:16.990Z,81920
2018-07-15T14:53:26.807Z,87200
2018-07-15T14:54:36.684Z,75456
2018-07-15T14:55:46.518Z,57216
2018-07-15T14:56:56.340Z,56096
2018-07-15T14:58:06.176Z,56800
2018-07-15T14:59:16.256Z,52320
2018-07-15T15:00:26.141Z,47360
2018-07-15T15:01:35.700Z,47616
2018-07-15T15:02:45.523Z,48480
2018-07-15T15:03:55.343Z,49856
2018-07-15T15:05:05.177Z,51904
2018-07-15T15:06:15.309Z,54336
2018-07-15T15:07:25.423Z,57728
2018-07-15T15:08:35.244Z,62176
2018-07-15T15:09:45.380Z,67392
2018-07-15T15:10:55.471Z,69248
2018-07-15T15:12:05.351Z,70400
2018-07-15T15:13:15.550Z,69632
2018-07-15T15:14:25.838Z,72192
2018-07-15T15:15:35.940Z,75264
2018-07-15T15:16:46.038Z,76576
2018-07-15T15:17:56.189Z,77696
2018-07-15T15:19:06.012Z,78752
2018-07-15T15:20:15.848Z,77600
2018-07-15T15:21:25.675Z,77376
2018-07-15T15:22:35.793Z,79232
2018-07-15T15:23:45.669Z,77664
2018-07-15T15:24:55.229Z,80832
2018-07-15T15:26:05.330Z,78720
2018-07-15T15:27:15.425Z,80768
2018-07-15T15:28:25.508Z,87392
2018-07-15T15:29:35.660Z,83744
2018-07-15T15:30:45.750Z,83712
2018-07-15T15:31:55.578Z,85984
2018-07-15T15:33:05.667Z,83936
2018-07-15T15:34:15.485Z,83776
2018-07-15T15:35:25.691Z,85952
2018-07-15T15:36:35.771Z,84704
2018-07-15T15:37:45.627Z,82496
2018-07-15T15:38:55.440Z,83520